Farmington, MO

2:22 AM CDT on April 24, 2018 (GMT -0500)
Farmington Regional

Weather History for KFAM - May, 2014

Change the Weather History Date:

Monday, May 12, 2014

  Actual Average Record
Temperature  
Mean Temperature 71 °F -  
Max Temperature 78 °F 72 °F 87 °F (2005)
Min Temperature 64 °F 52 °F 37 °F (2013)
Cooling Degree Days 6    
Growing Degree Days 21 (Base 50)    
Moisture  
Dew Point 68 °F    
Average Humidity 84    
Maximum Humidity 100    
Minimum Humidity 74    
Precipitation  
Precipitation 0.28 in - - ()
Sea Level Pressure  
Sea Level Pressure 29.96 in    
Wind  
Wind Speed 11 mph (South)    
Max Wind Speed 17 mph    
Max Gust Speed 28 mph    
Visibility 10 miles    
Events Thunderstorm    
Averages and records for this station are not official NWS values.
T = Trace of Precipitation, MM = Missing Value Source: NWS Daily Summary

Daily Weather History Graph

Daily Weather History Graph

Search for Another Location

Airport or City:

Astronomy

May. 12, 2014 Rise Set
Actual Time 5:54 AM CDT 8:02 PM CDT
Civil Twilight 5:25 AM CDT 8:31 PM CDT
Nautical Twilight 4:49 AM CDT 9:07 PM CDT
Astronomical Twilight 4:11 AM CDT 9:45 PM CDT
Moon 6:02 PM CDT (5/12) 4:30 AM CDT (5/12)
Length of Visible Light 15h 05m
Length of Day
14h 07m
Waxing Gibbous, 95% of the Moon is Illuminated
May 12
Waxing Gibbous
May 14
Full
May 21
Last Quarter
May 28
New
Jun 5
First Quarter

Hourly Weather History & Observations

Time (CDT) Temp. Dew Point Humidity Pressure Visibility Wind Dir Wind Speed Gust Speed Precip Events Conditions
12:15 AM 71.6 °F 68.0 °F 88% 29.93 in 10.0 mi SSE 6.9 mph - N/A   Clear
12:35 AM 71.6 °F 68.0 °F 88% 29.95 in 10.0 mi South 6.9 mph - N/A   Clear
12:55 AM 71.6 °F 68.0 °F 88% 29.95 in 10.0 mi South 8.1 mph - N/A   Clear
1:15 AM 71.6 °F 68.0 °F 88% 29.95 in 10.0 mi SSE 6.9 mph - N/A   Partly Cloudy
1:35 AM 71.6 °F 68.0 °F 88% 29.96 in 10.0 mi SSE 8.1 mph - N/A   Mostly Cloudy
1:55 AM 71.6 °F 68.0 °F 88% 29.95 in 10.0 mi SSE 10.4 mph - N/A   Overcast
2:15 AM 73.4 °F 66.2 °F 78% 29.95 in 10.0 mi SSE 10.4 mph - N/A   Mostly Cloudy
2:35 AM 71.6 °F 66.2 °F 83% 29.94 in 10.0 mi SSE 9.2 mph - N/A   Partly Cloudy
2:55 AM 71.6 °F 66.2 °F 83% 29.93 in 10.0 mi SSE 12.7 mph - N/A   Clear
3:15 AM 71.6 °F 66.2 °F 83% 29.93 in 10.0 mi SSE 10.4 mph - N/A   Clear
3:35 AM 71.6 °F 66.2 °F 83% 29.92 in 10.0 mi South 11.5 mph 18.4 mph N/A   Clear
3:55 AM 71.6 °F 66.2 °F 83% 29.92 in 10.0 mi South 12.7 mph - N/A   Clear
4:15 AM 71.6 °F 66.2 °F 83% 29.92 in 10.0 mi South 12.7 mph - N/A   Scattered Clouds
4:35 AM 71.6 °F 66.2 °F 83% 29.93 in 10.0 mi South 12.7 mph 18.4 mph N/A   Scattered Clouds
4:55 AM 69.8 °F 66.2 °F 88% 29.92 in 10.0 mi South 13.8 mph 17.3 mph N/A   Mostly Cloudy
5:15 AM 69.8 °F 66.2 °F 88% 29.93 in 10.0 mi South 12.7 mph 21.9 mph N/A   Mostly Cloudy
5:35 AM 71.6 °F 66.2 °F 83% 29.94 in 10.0 mi South 12.7 mph 23.0 mph N/A   Overcast
5:55 AM 71.6 °F 66.2 °F 83% 29.96 in 10.0 mi South 16.1 mph 20.7 mph N/A   Overcast
6:15 AM 71.6 °F 66.2 °F 83% 29.96 in 10.0 mi South 13.8 mph 20.7 mph N/A   Overcast
6:35 AM 71.6 °F 66.2 °F 83% 29.97 in 10.0 mi South 11.5 mph 19.6 mph N/A   Overcast
6:55 AM 71.6 °F 66.2 °F 83% 29.98 in 10.0 mi South 11.5 mph 16.1 mph N/A   Overcast
7:15 AM 71.6 °F 66.2 °F 83% 29.98 in 10.0 mi South 12.7 mph 16.1 mph N/A   Overcast
7:35 AM 71.6 °F 66.2 °F 83% 29.98 in 10.0 mi South 12.7 mph - N/A   Overcast
7:55 AM 71.6 °F 66.2 °F 83% 29.98 in 10.0 mi South 12.7 mph 16.1 mph N/A   Overcast
8:15 AM 73.4 °F 68.0 °F 83% 29.97 in 10.0 mi South 12.7 mph 20.7 mph N/A   Overcast
8:35 AM 73.4 °F 66.2 °F 78% 29.98 in 10.0 mi South 15.0 mph 20.7 mph N/A   Mostly Cloudy
9:15 AM 73.4 °F 68.0 °F 83% 30.00 in 10.0 mi South 12.7 mph 18.4 mph N/A   Overcast
9:35 AM 73.4 °F 68.0 °F 83% 30.01 in 10.0 mi SSW 8.1 mph 18.4 mph N/A   Overcast
9:55 AM 73.4 °F 68.0 °F 83% 30.02 in 10.0 mi SSW 10.4 mph 17.3 mph N/A   Overcast
10:15 AM 73.4 °F 68.0 °F 83% 30.02 in 10.0 mi SSW 11.5 mph - N/A   Overcast
10:35 AM 73.4 °F 68.0 °F 83% 30.02 in 10.0 mi South 11.5 mph - N/A   Overcast
10:55 AM 75.2 °F 69.8 °F 83% 30.02 in 10.0 mi South 10.4 mph - N/A   Mostly Cloudy
11:15 AM 75.2 °F 69.8 °F 83% 30.03 in 10.0 mi South 11.5 mph - N/A   Mostly Cloudy
11:35 AM 75.2 °F 69.8 °F 83% 30.03 in 10.0 mi South 10.4 mph - N/A   Overcast
11:55 AM 75.2 °F 69.8 °F 83% 30.02 in 10.0 mi South 16.1 mph - N/A   Mostly Cloudy
12:15 PM 77.0 °F 69.8 °F 78% 30.02 in 10.0 mi South 12.7 mph 18.4 mph N/A   Overcast
12:35 PM 78.8 °F 69.8 °F 74% 30.01 in 10.0 mi South 10.4 mph 24.2 mph N/A   Mostly Cloudy
12:55 PM 77.0 °F 69.8 °F 78% 30.01 in 10.0 mi South 17.3 mph 20.7 mph N/A   Overcast
1:15 PM 77.0 °F 69.8 °F 78% 30.00 in 10.0 mi South 11.5 mph 20.7 mph N/A   Mostly Cloudy
1:35 PM 77.0 °F 69.8 °F 78% 29.99 in 10.0 mi South 15.0 mph - N/A   Overcast
1:55 PM 78.8 °F 71.6 °F 78% 29.98 in 10.0 mi South 16.1 mph 21.9 mph N/A   Mostly Cloudy
2:35 PM 78.8 °F 69.8 °F 74% 29.97 in 10.0 mi South 13.8 mph 24.2 mph N/A   Overcast
2:55 PM 78.8 °F 71.6 °F 78% 29.96 in 10.0 mi South 13.8 mph 17.3 mph N/A   Mostly Cloudy
3:15 PM 77.0 °F 69.8 °F 78% 29.96 in 10.0 mi South 16.1 mph 23.0 mph N/A   Mostly Cloudy
3:35 PM 75.2 °F 69.8 °F 83% 29.96 in 10.0 mi South 12.7 mph - N/A   Partly Cloudy
3:55 PM 75.2 °F 71.6 °F 89% 29.95 in 10.0 mi South 16.1 mph 20.7 mph N/A   Partly Cloudy
4:15 PM 75.2 °F 69.8 °F 83% 29.95 in 10.0 mi South 17.3 mph 27.6 mph N/A   Mostly Cloudy
4:35 PM 75.2 °F 69.8 °F 83% 29.94 in 10.0 mi South 15.0 mph 26.5 mph N/A   Mostly Cloudy
4:55 PM 75.2 °F 69.8 °F 83% 29.93 in 10.0 mi South 15.0 mph 20.7 mph N/A   Scattered Clouds
5:15 PM 75.2 °F 69.8 °F 83% 29.94 in 10.0 mi SSE 15.0 mph 19.6 mph N/A   Scattered Clouds
5:35 PM 75.2 °F 69.8 °F 83% 29.94 in 10.0 mi South 15.0 mph 24.2 mph N/A   Mostly Cloudy
5:55 PM 77.0 °F 69.8 °F 78% 29.93 in 10.0 mi South 16.1 mph 21.9 mph N/A   Mostly Cloudy
6:15 PM 75.2 °F 69.8 °F 83% 29.93 in 10.0 mi South 15.0 mph 27.6 mph N/A   Mostly Cloudy
6:35 PM 75.2 °F 69.8 °F 83% 29.93 in 10.0 mi South 17.3 mph 21.9 mph N/A   Mostly Cloudy
6:55 PM 75.2 °F 69.8 °F 83% 29.93 in 10.0 mi South 15.0 mph 21.9 mph N/A   Scattered Clouds
7:15 PM 73.4 °F 69.8 °F 88% 29.92 in 10.0 mi South 13.8 mph - N/A   Mostly Cloudy
7:35 PM 73.4 °F 69.8 °F 88% 29.93 in 10.0 mi South 12.7 mph - N/A   Scattered Clouds
7:55 PM 73.4 °F 69.8 °F 88% 29.92 in 10.0 mi South 12.7 mph 17.3 mph N/A   Partly Cloudy
8:15 PM 71.6 °F 69.8 °F 94% 29.94 in 10.0 mi South 12.7 mph 19.6 mph N/A   Scattered Clouds
8:35 PM 71.6 °F 68.0 °F 88% 29.95 in 10.0 mi South 9.2 mph - N/A   Partly Cloudy
8:55 PM 71.6 °F 68.0 °F 88% 29.95 in 10.0 mi South 11.5 mph 16.1 mph N/A   Clear
9:15 PM 71.6 °F 68.0 °F 88% 29.94 in 10.0 mi South 11.5 mph 18.4 mph N/A   Clear
9:35 PM 71.6 °F 66.2 °F 83% 29.95 in 10.0 mi South 8.1 mph - N/A   Clear
9:55 PM 71.6 °F 66.2 °F 83% 29.95 in 10.0 mi South 6.9 mph - N/A   Clear
10:15 PM 71.6 °F 66.2 °F 83% 29.95 in 10.0 mi SSW 6.9 mph - N/A   Clear
10:35 PM 71.6 °F 66.2 °F 83% 29.96 in 10.0 mi SSW 6.9 mph - N/A   Scattered Clouds
10:55 PM 69.8 °F 62.6 °F 78% 29.98 in 10.0 mi West 9.2 mph 19.6 mph N/A   Overcast
11:15 PM 66.2 °F 62.6 °F 88% 29.99 in 7.0 mi WNW 9.2 mph 20.7 mph 0.05 in Thunderstorm Overcast
11:35 PM 64.4 °F 62.6 °F 94% 30.00 in 5.0 mi SSW 5.8 mph - 0.19 in   Overcast
11:55 PM 64.4 °F 64.4 °F 100% 29.98 in 8.0 mi SE 4.6 mph - 0.28 in Thunderstorm Mostly Cloudy